ADDS METAR Data INFO
IDs: Format: Raw Decoded Include TAF

Data at: 0021 UTC 15 Dec 2017

KGFK 142353Z 07005KT 7SM -SN BKN021 BKN030 OVC039 M07/M09 A3005 RMK AO2 SNB17 SLP191 4/002 931000 P0000 60000 T10671089 11056 21067 58005
KGFK 142253Z 06003KT 10SM BKN024 BKN029 OVC047 M07/M09 A3005 RMK AO2 SNE52 SLP195 P0000 T10671089
KGFK 142153Z 02005KT 8SM -SN FEW019 BKN024 OVC062 M07/M09 A3006 RMK AO2 SLP195 P0000 T10671089
KGFK 142053Z 01006KT 8SM -SN SCT017 BKN024 OVC055 M06/M08 A3006 RMK AO2 SNB49 SLP197 P0000 60000 T10611083 57007
KGFK 141953Z 35009KT 10SM FEW017 BKN022 BKN200 M06/M09 A3006 RMK AO2 SLP197 T10561089
KGFK 141853Z 33012KT 10SM OVC019 M06/M08 A3008 RMK AO2 SNB1757E26 SLP204 P0000 T10611083
KGFK 141832Z 36010KT 10SM OVC016 M06/M08 A3008 RMK AO2 SNB1757E26 P0000 T10611078
KGFK 141807Z 34012KT 6SM -SN OVC014 M06/M08 A3008 RMK AO2 SNB1757 P0000 T10611078
KGFK 141753Z 35012KT 6SM BR OVC015 M06/M08 A3008 RMK AO2 SLP205 4/002 931000 933004 60000 T10611083 11050 21072 51015
KGFK 141653Z 36017KT 9SM OVC021 M06/M08 A3008 RMK AO2 SNE49 SLP204 P0000 T10611083 $
KGFK 141553Z 35020G24KT 9SM -SN OVC017 M05/M08 A3007 RMK AO2 SLP199 P0000 T10501078
KGFK 141522Z 34012G22KT 9SM -SN BKN020 BKN031 OVC041 M05/M08 A3006 RMK AO2 P0000 T10501078
KGFK 141453Z 33010KT 9SM -SN BKN042 BKN055 OVC080 M05/M07 A3004 RMK AO2 SNB1354 SLP188 P0000 60000 T10501072 51015
KGFK 141353Z 32007KT 10SM SCT024 OVC037 M06/M07 A3003 RMK AO2 SLP185 T10561072
KGFK 141313Z 28005KT 10SM BKN024 OVC037 M06/M08 A3002 RMK AO2 T10611078 $
KGFK 141253Z 28004KT 10SM FEW028 OVC038 M07/M08 A3001 RMK AO2 SNE11 SLP180 P0000 T10671078 $
KGFK 141221Z 27003KT 10SM BKN030 OVC095 M07/M08 A3000 RMK AO2 SNE11 P0000 T10721083 $
KGFK 141153Z 00000KT 8SM -SN BKN027 OVC060 M07/M09 A2999 RMK AO2 SNB48 SLP173 4/002 931000 P0000 60000 T10721089 11072 21083 53002 $
KGFK 141148Z 00000KT 10SM -SN BKN029 OVC060 M07/M09 A2999 RMK AO2 SNB48 P0000 $
KGFK 141053Z AUTO 23003KT 10SM SCT034 BKN065 OVC085 M08/M09 A2998 RMK AO2 SLP170 T10781094 $
KGFK 141039Z AUTO 22005KT 10SM SCT017 BKN060 OVC085 M08/M09 A2999 RMK AO2 T10781094 $
KGFK 140953Z AUTO 19005KT 10SM BKN029 OVC080 M08/M09 A2999 RMK AO2 SLP171 T10781094 $
KGFK 140903Z AUTO 18004KT 10SM SCT014 BKN029 OVC042 M08/M10 A2999 RMK AO2 T10831100 $
KGFK 140853Z AUTO 18004KT 10SM BKN013 BKN029 OVC041 M08/M10 A2999 RMK AO2 SLP173 T10831100 56004 $
KGFK 140753Z AUTO 00000KT 10SM OVC012 M08/M11 A2999 RMK AO2 SLP173 T10781106 $
KGFK 140653Z AUTO 31005KT 10SM OVC013 M08/M11 A3000 RMK AO2 SLP174 T10831106 $
KGFK 140553Z AUTO 29010KT 10SM OVC014 M08/M10 A3000 RMK AO2 SNE32 SLP177 4/002 931000 P0000 60000 T10831100 11067 21083 400391083 53004 $
KGFK 140530Z 31008KT 9SM -SN BKN014 BKN018 OVC022 M08/M10 A3000 RMK AO2 LAST P0000 T10781100 $
KGFK 140453Z 32007KT 8SM -SN SCT012 BKN014 OVC020 M07/M10 A3000 RMK AO2 SLP175 P0000 T10721100 $
KGFK 140353Z 34006KT 7SM -SN BKN014 BKN018 OVC022 M07/M09 A2999 RMK AO2 SLP171 P0000 T10721094 $
KGFK 140321Z 01007KT 6SM -SN BR BKN014 BKN018 OVC022 M07/M09 A2999 RMK AO2 P0000 T10721089 $
KGFK 140253Z 35007KT 8SM -SN BKN015 OVC020 M07/M09 A2999 RMK AO2 SLP171 P0000 60000 T10721089 51008 $
KGFK 140153Z 01010KT 9SM -SN BKN018 OVC022 M07/M09 A2998 RMK AO2 SLP169 P0000 T10721094 $
KGFK 140053Z 35013KT 6SM -SN BR BKN017 BKN020 OVC024 M07/M09 A2998 RMK AO2 SLP168 P0000 T10671089 $
KGFK 132353Z COR 36013KT 5SM -SN BKN018 OVC023 M07/M09 A2996 RMK AO2 PK WND 01026/2325 SLP162 4/002 931000 P0000 60000 T10671094 11033 21067 51032 $
KGFK 132253Z 36020KT 9SM -SN SCT017 BKN020 OVC028 M06/M09 A2994 RMK AO2 PK WND 35030/2155 SNE20B52 SLP154 P0000 T10611094 $
KGFK 132153Z 35018KT 9SM -SN SCT015 BKN018 OVC022 M06/M08 A2991 RMK AO2 PK WND 36027/2139 SLP144 P0000 T10561078 $
KGFK 132137Z 35015KT 9SM -SN SCT013 BKN015 OVC028 M05/M07 A2990 RMK AO2 P0000 T10501072 $
KGFK 132053Z 35019KT 9SM -SN BKN012 BKN015 OVC032 M05/M07 A2987 RMK AO2 SNB52 SLP129 P0000 60000 T10501072 53026
KGFK 131953Z 36018KT 10SM SCT011 BKN015 OVC025 M04/M07 A2982 RMK AO2 PK WND 34035/1856 SLP112 T10441067
KGFK 131853Z 35027G37KT 10SM SCT011 OVC020 M04/M07 A2981 RMK AO2 PK WND 35040/1842 SLP106 T10391067
KGFK 131842Z 35031G40KT 10SM BKN011 OVC019 M03/M06 A2980 RMK AO2 PK WND 35040/1842 T10331061
KGFK 131808Z 35024G32KT 10SM SCT010 OVC016 M03/M04 A2980 RMK AO2 PK WND 35034/1756 T10331044
KGFK 131753Z 35024G33KT 8SM BKN008 OVC016 M03/M04 A2979 RMK AO2 PK WND 35033/1752 CIG 006V012 SLP100 4/002 931000 933004 60000 I6001 T10331044 11022 21033 51022
KGFK 131729Z 35018KT 6SM BR BKN008 OVC014 M03/M04 A2979 RMK AO2 PK WND 35031/1707 T10331039
KGFK 131653Z 35023G32KT 8SM OVC012 M03/M04 A2979 RMK AO2 PK WND 35032/1648 UPB07E18FZRAB18E21 SLP099 P0000 I1001 T10281044
KGFK 131627Z 35022G29KT 10SM OVC011 M03/M04 A2978 RMK AO2 PK WND 34032/1608 UPB07E18FZRAB18E21 P0000 I1001 T10281044
KGFK 131619Z 35018G30KT 8SM -FZRA OVC013 M03/M04 A2977 RMK AO2 PK WND 34032/1608 UPB07E18FZRAB18 P0000 I1001 T10281039
KGFK 131553Z 34019G30KT 9SM OVC015 M03/M04 A2976 RMK AO2 PK WND 34034/1535 SLP092 T10281039
KGFK 131453Z 35022G33KT 10SM FEW016 BKN024 OVC029 M02/M04 A2973 RMK AO2 PK WND 35036/1354 SLP079 60000 T10221044 51029
KGFK 131405Z 35025G34KT 10SM OVC014 M02/M04 A2971 RMK AO2 PK WND 35036/1354 T10221044
KGFK 131353Z 35027G37KT 10SM OVC016 M02/M04 A2971 RMK AO2 PK WND 34040/1315 SLP072 T10221044
KGFK 131335Z 35026G36KT 10SM BKN018 OVC034 M02/M04 A2970 RMK AO2 PK WND 34040/1315 T10221044
KGFK 131253Z 34025G34KT 10SM OVC013 M02/M04 A2967 RMK AO2 PK WND 35037/1233 UPB1155E1157SNE1155B1157E04 SLP061 P0000 T10221039
KGFK 131225Z 35021G34KT 10SM BKN013 OVC020 M02/M04 A2966 RMK AO2 PK WND 34034/1154 UPB1155E1157SNE1155B1157E04 P0000 T10221039